Time;durP1;ratioP1;P1;durP2;ratioP2;P2;SDS_P1;SDS_P2;PMS_P1;PMS_P2;Temp;Humidity;BMP_temperature;BMP_pressure;BME280_temperature;BME280_humidity;BME280_pressure;Samples;Min_cycle;Max_cycle;Signal;HPM_P1;HPM_P2
2024/03/15 00:03:56;;;;;;;73.00;39.80;;;;;;;2.81;84.79;98750.48;226604;1275;22541;-80
2024/03/15 00:08:59;;;;;;;76.30;41.60;;;;;;;2.80;85.15;98746.88;226711;1273;22561;-80
2024/03/15 00:14:02;;;;;;;72.50;40.50;;;;;;;2.78;85.03;98742.58;226661;1272;22537;-80
2024/03/15 00:19:05;;;;;;;73.70;39.90;;;;;;;2.75;84.91;98744.41;226634;1272;22647;-80
2024/03/15 00:24:07;;;;;;;65.70;36.60;;;;;;;2.67;84.91;98741.61;226575;1272;22586;-81
2024/03/15 00:29:13;;;;;;;71.80;40.90;;;;;;;2.62;85.09;98737.92;226653;1275;22536;-80
2024/03/15 00:34:15;;;;;;;69.00;40.00;;;;;;;2.62;85.30;98733.39;226647;1272;22544;-80
2024/03/15 00:39:22;;;;;;;68.20;38.50;;;;;;;2.57;85.25;98730.23;226705;1273;22540;-82
2024/03/15 00:44:24;;;;;;;63.60;38.00;;;;;;;2.50;85.17;98729.31;226684;1272;22542;-81
2024/03/15 00:49:26;;;;;;;64.20;35.70;;;;;;;2.43;85.24;98728.02;226611;1272;22546;-81
2024/03/15 00:54:28;;;;;;;65.00;37.40;;;;;;;2.36;85.53;98722.73;226622;1272;22529;-81
2024/03/15 00:59:30;;;;;;;66.30;38.40;;;;;;;2.33;85.55;98717.63;226626;1275;23017;-81
2024/03/15 01:04:32;;;;;;;70.40;38.10;;;;;;;2.28;85.42;98714.95;226683;1270;22580;-79
2024/03/15 01:09:36;;;;;;;69.20;38.80;;;;;;;2.22;85.54;98707.36;226652;1275;22542;-80
2024/03/15 01:14:40;;;;;;;62.10;35.10;;;;;;;2.16;85.51;98699.73;226573;1275;22799;-80
2024/03/15 01:19:45;;;;;;;59.80;35.00;;;;;;;2.12;85.91;98696.90;226687;1273;25571;-81
2024/03/15 01:24:47;;;;;;;52.30;30.30;;;;;;;2.11;86.01;98695.23;226650;1272;22731;-80
2024/03/15 01:29:50;;;;;;;60.70;34.30;;;;;;;2.12;86.12;98695.34;226710;1275;22740;-81
2024/03/15 01:34:52;;;;;;;62.20;34.10;;;;;;;2.12;86.13;98691.88;226619;1275;22539;-80
2024/03/15 01:39:54;;;;;;;56.30;33.80;;;;;;;2.06;85.93;98685.79;226675;1273;25491;-79
2024/03/15 01:44:56;;;;;;;57.40;33.20;;;;;;;1.98;86.07;98685.67;226687;1273;22600;-79
2024/03/15 01:50:00;;;;;;;57.80;31.60;;;;;;;1.88;86.07;98685.52;226652;1272;22581;-80
2024/03/15 01:55:03;;;;;;;56.40;32.10;;;;;;;1.81;86.15;98683.02;226666;1272;22542;-81
2024/03/15 02:00:10;;;;;;;52.80;29.80;;;;;;;1.77;86.28;98682.67;226662;1273;22574;-80
2024/03/15 02:05:14;;;;;;;56.60;33.00;;;;;;;1.71;86.17;98682.55;226547;1275;22535;-80
2024/03/15 02:10:16;;;;;;;58.90;32.70;;;;;;;1.64;86.34;98686.05;226728;1275;22572;-79
2024/03/15 02:15:18;;;;;;;57.30;33.10;;;;;;;1.59;86.26;98690.70;226605;1275;22562;-81
2024/03/15 02:20:21;;;;;;;70.70;38.60;;;;;;;1.56;86.49;98686.41;226659;1270;22596;-80
2024/03/15 02:25:24;;;;;;;68.20;33.70;;;;;;;1.57;86.64;98684.41;226604;1272;22653;-80
2024/03/15 02:30:26;;;;;;;97.10;37.20;;;;;;;1.60;86.58;98684.34;226635;1272;22534;-80
2024/03/15 02:35:30;;;;;;;132.90;36.60;;;;;;;1.61;86.46;98686.87;226651;1272;22641;-80
2024/03/15 02:40:34;;;;;;;167.50;35.90;;;;;;;1.61;86.60;98685.69;226408;1275;234831;-80
2024/03/15 02:45:36;;;;;;;69.50;30.90;;;;;;;1.60;86.40;98682.43;226582;1274;22567;-81
2024/03/15 02:50:39;;;;;;;97.80;32.40;;;;;;;1.58;86.45;98685.58;226752;1273;22560;-81
2024/03/15 02:55:41;;;;;;;108.20;33.50;;;;;;;1.55;86.52;98688.10;226628;1275;22570;-81
2024/03/15 03:00:44;;;;;;;96.60;33.80;;;;;;;1.54;86.62;98687.33;226645;1275;22529;-80
2024/03/15 03:05:47;;;;;;;88.30;31.10;;;;;;;1.50;86.69;98687.64;226656;1275;22544;-80
2024/03/15 03:10:49;;;;;;;68.00;30.80;;;;;;;1.50;86.69;98683.85;226720;1272;22540;-81
2024/03/15 03:15:51;;;;;;;87.50;31.60;;;;;;;1.45;86.67;98685.48;226680;1256;22508;-80
2024/03/15 03:20:57;;;;;;;86.00;29.80;;;;;;;1.40;86.46;98687.63;226598;1275;22572;-80
2024/03/15 03:25:59;;;;;;;93.40;31.90;;;;;;;1.38;86.62;98694.44;226702;1273;22640;-80
2024/03/15 03:31:02;;;;;;;97.10;31.40;;;;;;;1.33;86.48;98701.27;226594;1275;22533;-80
2024/03/15 03:36:04;;;;;;;65.60;28.60;;;;;;;1.27;86.53;98700.21;226899;1275;22865;-81
2024/03/15 03:41:09;;;;;;;40.50;25.30;;;;;;;1.23;86.37;98700.79;226758;1273;22561;-81
2024/03/15 03:46:13;;;;;;;80.50;31.20;;;;;;;1.18;86.54;98698.23;226585;1275;22534;-80
2024/03/15 03:51:15;;;;;;;92.40;30.70;;;;;;;1.17;86.60;98695.77;226714;1272;22540;-80
2024/03/15 03:56:17;;;;;;;78.30;28.70;;;;;;;1.11;86.58;98696.23;226778;1273;24177;-80
2024/03/15 04:01:19;;;;;;;87.00;31.30;;;;;;;1.03;86.51;98699.38;226617;1275;25275;-81
2024/03/15 04:06:21;;;;;;;56.40;26.90;;;;;;;0.93;86.51;98697.42;226757;1272;22527;-81
2024/03/15 04:11:24;;;;;;;44.90;26.60;;;;;;;0.87;86.75;98696.42;226756;1267;25976;-80
2024/03/15 04:16:27;;;;;;;65.30;29.60;;;;;;;0.83;86.66;98694.31;226703;1272;22742;-80
2024/03/15 04:21:29;;;;;;;47.80;26.50;;;;;;;0.80;86.97;98688.47;226674;1273;24227;-80
2024/03/15 04:26:31;;;;;;;50.30;29.60;;;;;;;0.78;86.79;98682.05;226584;1274;25338;-80
2024/03/15 04:31:33;;;;;;;49.00;27.30;;;;;;;0.78;87.35;98680.82;226632;1275;22561;-81
2024/03/15 04:36:36;;;;;;;49.40;28.50;;;;;;;0.81;87.22;98679.25;226773;1273;22534;-80
2024/03/15 04:41:38;;;;;;;52.40;31.20;;;;;;;0.82;87.58;98679.47;226724;1273;22559;-79
2024/03/15 04:46:40;;;;;;;52.10;30.90;;;;;;;0.85;87.80;98678.02;226522;1270;22538;-79
2024/03/15 04:51:44;;;;;;;50.50;29.90;;;;;;;0.85;87.51;98683.90;226705;1271;22573;-80
2024/03/15 04:56:46;;;;;;;59.10;34.60;;;;;;;0.82;87.47;98687.61;226688;1273;22533;-80
2024/03/15 05:01:48;;;;;;;56.80;32.60;;;;;;;0.80;87.55;98687.11;226642;1275;22470;-80
2024/03/15 05:06:50;;;;;;;57.90;34.30;;;;;;;0.77;87.47;98689.92;226677;1275;22580;-80
2024/03/15 05:11:53;;;;;;;57.30;34.00;;;;;;;0.75;87.33;98690.16;226730;1273;22599;-80
2024/03/15 05:16:56;;;;;;;62.30;33.50;;;;;;;0.71;87.17;98688.23;226867;1272;25297;-81
2024/03/15 05:22:07;;;;;;;61.30;35.30;;;;;;;0.68;87.52;98691.70;226731;1273;22573;-80
2024/03/15 05:27:09;;;;;;;56.10;32.70;;;;;;;0.69;87.43;98697.33;226669;1259;22540;-80
2024/03/15 05:32:11;;;;;;;55.60;33.70;;;;;;;0.73;87.63;98702.77;226725;1270;22541;-80
2024/03/15 05:37:13;;;;;;;61.20;34.50;;;;;;;0.79;87.61;98695.52;226708;1275;22524;-81
2024/03/15 05:42:15;;;;;;;58.10;33.80;;;;;;;0.95;88.03;98693.28;226800;1273;22654;-81
2024/03/15 05:47:17;;;;;;;55.60;33.30;;;;;;;1.09;87.69;98690.52;226703;1275;22537;-80
2024/03/15 05:52:19;;;;;;;52.60;30.70;;;;;;;1.17;87.48;98693.66;226801;1273;22667;-81
2024/03/15 05:57:22;;;;;;;58.90;33.20;;;;;;;1.21;87.52;98690.51;226707;1273;26057;-81
2024/03/15 06:02:24;;;;;;;57.80;33.00;;;;;;;1.29;87.60;98694.15;226865;1270;22609;-81
2024/03/15 06:07:27;;;;;;;51.80;29.10;;;;;;;1.36;87.31;98693.52;226640;1270;25324;-80
2024/03/15 06:12:30;;;;;;;62.30;31.00;;;;;;;1.43;87.44;98689.86;226668;1275;22545;-81
2024/03/15 06:17:32;;;;;;;48.30;27.20;;;;;;;1.52;87.18;98691.87;226711;1269;22738;-81
2024/03/15 06:22:34;;;;;;;53.40;28.80;;;;;;;1.56;87.13;98696.49;226608;1273;22547;-81
2024/03/15 06:27:39;;;;;;;56.10;26.20;;;;;;;1.68;87.30;98697.20;226815;1273;22550;-81
2024/03/15 06:32:41;;;;;;;58.70;29.00;;;;;;;1.83;87.25;98695.18;226707;1270;22557;-81
2024/03/15 06:37:45;;;;;;;58.50;29.40;;;;;;;2.01;87.47;98696.05;226809;1273;22576;-82
2024/03/15 06:43:13;;;;;;;58.60;30.50;;;;;;;2.19;87.41;98697.18;226797;1273;22530;-81
2024/03/15 06:48:32;;;;;;;52.80;29.30;;;;;;;2.39;87.66;98692.20;226768;1271;25369;-80
2024/03/15 06:53:35;;;;;;;59.40;31.10;;;;;;;2.64;87.74;98692.61;226841;1272;22548;-85
2024/03/15 06:58:37;;;;;;;57.40;31.20;;;;;;;2.89;87.74;98691.32;226812;1273;22546;-79
2024/03/15 07:03:40;;;;;;;58.40;30.40;;;;;;;3.23;87.79;98697.34;226448;1256;23013;-85
2024/03/15 07:08:42;;;;;;;59.50;31.50;;;;;;;3.59;87.79;98690.39;226595;1267;24225;-87
2024/03/15 07:13:46;;;;;;;61.70;33.60;;;;;;;3.91;87.78;98686.27;226736;1273;22586;-84
2024/03/15 07:18:48;;;;;;;71.30;40.50;;;;;;;4.19;87.49;98684.45;226722;1274;23270;-85
2024/03/15 07:23:52;;;;;;;58.80;34.20;;;;;;;4.43;87.37;98689.19;226606;1274;22558;-86
2024/03/15 07:28:55;;;;;;;58.40;33.70;;;;;;;4.74;87.49;98690.41;226803;1274;23997;-89
2024/03/15 07:34:01;;;;;;;57.00;33.20;;;;;;;5.00;87.45;98690.58;227007;1274;22556;-90
2024/03/15 07:39:06;;;;;;;57.00;34.50;;;;;;;5.24;87.33;98691.52;226943;1274;22551;-90
2024/03/15 07:44:14;;;;;;;49.70;32.00;;;;;;;5.46;86.88;98695.45;227316;1273;22561;-89
2024/03/15 07:49:39;;;;;;;48.50;30.90;;;;;;;5.71;86.91;98694.67;226544;1278;22525;-92
2024/03/15 07:54:43;;;;;;;53.80;33.90;;;;;;;5.96;86.47;98699.38;226705;1270;22695;-91
2024/03/15 07:59:51;;;;;;;45.60;30.10;;;;;;;6.24;86.28;98702.50;226767;1276;22538;-92
2024/03/15 08:04:56;;;;;;;44.10;29.00;;;;;;;6.54;85.77;98703.54;226640;1275;22619;-87
2024/03/15 08:09:58;;;;;;;44.40;30.20;;;;;;;6.85;85.43;98700.17;226108;1272;22568;-89
2024/03/15 08:15:04;;;;;;;46.80;31.20;;;;;;;7.18;84.72;98699.48;225999;1277;22549;-89
2024/03/15 08:20:11;;;;;;;41.70;28.70;;;;;;;7.53;85.00;98700.59;226346;1277;25256;-90
2024/03/15 08:25:14;;;;;;;38.30;27.40;;;;;;;7.89;84.61;98693.84;226534;1273;22542;-89
2024/03/15 08:30:22;;;;;;;40.00;26.00;;;;;;;8.28;84.19;98695.58;227003;1272;24385;-90
2024/03/15 08:35:25;;;;;;;39.10;25.20;;;;;;;8.67;83.63;98688.77;227344;1267;26048;-90
2024/03/15 08:40:28;;;;;;;31.70;22.50;;;;;;;9.02;82.82;98683.17;226792;1270;22537;-90
2024/03/15 08:45:34;;;;;;;25.70;19.20;;;;;;;9.35;82.08;98673.20;226980;1273;22930;-90
2024/03/15 08:50:37;;;;;;;25.10;17.40;;;;;;;9.70;81.28;98669.42;226930;1267;22555;-92
2024/03/15 08:55:42;;;;;;;25.40;18.50;;;;;;;10.06;80.37;98668.22;226821;1268;22536;-87
2024/03/15 09:00:48;;;;;;;21.30;16.10;;;;;;;10.40;79.65;98666.81;226528;1273;22530;-89
2024/03/15 09:05:51;;;;;;;22.10;15.00;;;;;;;10.66;78.58;98666.19;226826;1269;22556;-89
2024/03/15 09:10:55;;;;;;;22.60;16.00;;;;;;;10.98;78.05;98661.46;226759;1270;22527;-89
2024/03/15 09:15:58;;;;;;;23.10;17.80;;;;;;;11.39;77.47;98657.64;226593;1275;22543;-90
2024/03/15 09:21:01;;;;;;;19.90;15.20;;;;;;;11.73;76.43;98649.12;226780;1270;22522;-89
2024/03/15 09:26:07;;;;;;;19.40;15.70;;;;;;;12.05;75.88;98649.44;226790;1274;22537;-84
2024/03/15 09:31:10;;;;;;;19.10;14.80;;;;;;;12.30;75.22;98644.58;226772;1273;22585;-85
2024/03/15 09:36:33;;;;;;;19.80;15.60;;;;;;;12.45;74.29;98644.16;226699;1274;22917;-86
2024/03/15 09:41:38;;;;;;;21.00;15.90;;;;;;;12.42;73.01;98643.73;226337;1270;22628;-90
2024/03/15 09:46:41;;;;;;;25.50;18.20;;;;;;;12.32;72.47;98642.64;226444;1273;22539;-84
2024/03/15 09:51:46;;;;;;;24.00;18.20;;;;;;;12.31;72.93;98639.77;226668;1263;22532;-83
2024/03/15 09:56:51;;;;;;;23.20;19.00;;;;;;;12.44;73.32;98637.95;227177;1272;25281;-83
2024/03/15 10:01:53;;;;;;;21.50;17.90;;;;;;;12.62;73.07;98634.04;226707;1267;22556;-83
2024/03/15 10:06:56;;;;;;;21.90;17.60;;;;;;;12.89;72.92;98627.03;226970;1272;22524;-84
2024/03/15 10:12:00;;;;;;;22.70;18.70;;;;;;;13.21;72.79;98619.95;226723;1270;22556;-85
2024/03/15 10:17:03;;;;;;;24.60;18.70;;;;;;;13.54;72.52;98614.02;226595;1258;22571;-85
2024/03/15 10:22:07;;;;;;;26.20;18.20;;;;;;;13.87;72.01;98605.28;226812;1266;22552;-85
2024/03/15 10:27:12;;;;;;;25.20;18.50;;;;;;;14.12;71.17;98605.07;226805;1272;23345;-85
2024/03/15 10:32:15;;;;;;;26.80;18.80;;;;;;;14.25;70.56;98603.59;226911;1270;22554;-84
2024/03/15 10:37:19;;;;;;;23.00;17.60;;;;;;;14.40;69.85;98601.65;226736;1261;22534;-85
2024/03/15 10:42:23;;;;;;;23.80;18.00;;;;;;;14.53;68.92;98601.70;227000;1267;24234;-85
2024/03/15 10:47:28;;;;;;;22.20;17.30;;;;;;;14.64;68.61;98597.59;226579;1273;24232;-82
2024/03/15 10:52:32;;;;;;;21.10;17.10;;;;;;;14.76;68.23;98591.45;226538;1251;22612;-84
2024/03/15 10:57:34;;;;;;;18.70;14.60;;;;;;;14.93;67.76;98584.52;226532;1269;22645;-83
2024/03/15 11:02:36;;;;;;;20.00;15.20;;;;;;;15.04;66.57;98582.61;226554;1260;23068;-83
2024/03/15 11:07:38;;;;;;;20.00;14.40;;;;;;;14.92;65.16;98577.59;226506;1266;22527;-83
2024/03/15 11:12:40;;;;;;;15.00;13.30;;;;;;;14.86;64.82;98569.53;226614;1272;22562;-83
2024/03/15 11:17:42;;;;;;;18.90;12.80;;;;;;;15.00;65.45;98564.36;226471;1260;22560;-83
2024/03/15 11:22:53;;;;;;;15.30;11.90;;;;;;;15.19;65.37;98554.53;226869;1259;23406;-84
2024/03/15 11:27:57;;;;;;;11.80;8.90;;;;;;;15.47;64.98;98551.64;226774;1266;22537;-84
2024/03/15 11:33:00;;;;;;;11.60;8.30;;;;;;;15.57;64.09;98546.61;226522;1268;25249;-83
2024/03/15 11:38:02;;;;;;;11.50;8.40;;;;;;;15.73;64.02;98543.68;226544;1272;22561;-82
2024/03/15 11:43:04;;;;;;;7.40;6.20;;;;;;;15.94;64.10;98541.61;226313;1273;22530;-80
2024/03/15 11:48:18;;;;;;;;;;;;;;;16.18;63.74;98544.70;226271;1269;22517;-80
2024/03/15 11:53:22;;;;;;;8.40;7.00;;;;;;;16.23;62.67;98546.91;226388;1266;22555;-81
2024/03/15 11:58:24;;;;;;;9.30;7.60;;;;;;;16.19;62.69;98539.45;226465;1266;22583;-80
2024/03/15 12:03:30;;;;;;;6.90;6.00;;;;;;;16.16;62.13;98532.10;226514;1267;22548;-83
2024/03/15 12:08:32;;;;;;;9.20;6.40;;;;;;;16.17;62.42;98531.27;226784;1263;22540;-81
2024/03/15 12:13:34;;;;;;;8.70;6.20;;;;;;;16.18;62.32;98528.82;226856;1260;25290;-82
2024/03/15 12:18:36;;;;;;;9.90;7.30;;;;;;;16.18;61.93;98525.84;226616;1273;22572;-83
2024/03/15 12:23:38;;;;;;;9.50;7.70;;;;;;;16.18;61.36;98521.36;226853;1260;22544;-81
2024/03/15 12:28:40;;;;;;;9.30;6.90;;;;;;;16.23;61.94;98523.52;226838;1272;22578;-81
2024/03/15 12:33:42;;;;;;;6.90;6.00;;;;;;;16.46;62.45;98513.79;226836;1266;23046;-81
2024/03/15 12:38:44;;;;;;;5.00;4.50;;;;;;;16.58;61.50;98515.09;226982;1269;22524;-82
2024/03/15 12:43:46;;;;;;;7.70;5.30;;;;;;;16.58;61.05;98509.17;226738;1266;22551;-83
2024/03/15 12:48:49;;;;;;;7.10;5.10;;;;;;;16.65;60.59;98511.41;226800;1269;23002;-82
2024/03/15 12:53:55;;;;;;;7.40;5.30;;;;;;;16.56;59.96;98509.50;226734;1272;22549;-79
2024/03/15 12:58:58;;;;;;;5.10;4.00;;;;;;;16.54;59.65;98504.54;226335;1258;22628;-82
2024/03/15 13:04:00;;;;;;;5.20;4.70;;;;;;;16.49;59.02;98502.29;226071;1266;22544;-80
2024/03/15 13:09:02;;;;;;;5.30;4.80;;;;;;;16.46;59.05;98496.96;226291;1269;22537;-81
2024/03/15 13:14:05;;;;;;;6.50;5.80;;;;;;;16.47;58.50;98490.73;226085;1272;22580;-79
2024/03/15 13:19:07;;;;;;;7.00;6.30;;;;;;;16.50;58.34;98483.33;226387;1273;22560;-82
2024/03/15 13:24:10;;;;;;;10.90;6.20;;;;;;;16.61;58.60;98486.30;226401;1273;22532;-82
2024/03/15 13:29:12;;;;;;;6.50;5.90;;;;;;;16.78;58.64;98486.00;226778;1269;22543;-81
2024/03/15 13:34:14;;;;;;;7.00;5.40;;;;;;;16.98;58.86;98481.97;226751;1259;22537;-81
2024/03/15 13:39:28;;;;;;;6.40;4.90;;;;;;;17.16;59.00;98471.77;226721;1273;23803;-81
2024/03/15 13:44:30;;;;;;;7.30;4.70;;;;;;;17.39;59.43;98467.00;226828;1250;22573;-78
2024/03/15 13:49:33;;;;;;;4.60;4.20;;;;;;;17.50;58.63;98465.23;226667;1272;22604;-80
2024/03/15 13:54:35;;;;;;;5.50;4.90;;;;;;;17.43;57.99;98464.89;226560;1273;23086;-80
2024/03/15 13:59:37;;;;;;;4.50;4.10;;;;;;;17.38;57.79;98458.80;226518;1266;22568;-80
2024/03/15 14:04:38;;;;;;;4.10;3.70;;;;;;;17.37;57.54;98452.16;226643;1270;22546;-78
2024/03/15 14:09:40;;;;;;;4.20;3.80;;;;;;;17.27;57.08;98453.75;226789;1251;22561;-79
2024/03/15 14:14:42;;;;;;;3.90;3.30;;;;;;;17.32;57.91;98449.52;226570;1269;22546;-78
2024/03/15 14:19:45;;;;;;;3.60;3.30;;;;;;;17.22;56.86;98446.87;226748;1271;22533;-78
2024/03/15 14:24:48;;;;;;;3.40;2.80;;;;;;;17.05;57.04;98447.20;226640;1266;22546;-80
2024/03/15 14:30:22;;;;;;;3.80;3.40;;;;;;;16.92;56.55;98436.71;219886;1304;544665;-82
2024/03/15 14:35:25;;;;;;;3.20;2.90;;;;;;;16.80;56.99;98434.58;224747;1284;25436;-81
2024/03/15 14:40:29;;;;;;;4.70;3.10;;;;;;;16.70;57.19;98430.71;224447;1275;214858;-82
2024/03/15 14:45:33;;;;;;;3.60;3.00;;;;;;;16.55;56.89;98429.13;224991;1278;25262;-79
2024/03/15 14:50:36;;;;;;;2.60;2.40;;;;;;;16.38;57.20;98431.55;224577;1275;22586;-86
2024/03/15 14:55:41;;;;;;;3.60;2.90;;;;;;;16.28;57.76;98426.32;224523;1285;25323;-82
2024/03/15 15:00:47;;;;;;;5.60;2.90;;;;;;;16.19;57.71;98427.83;224569;1284;22564;-81
2024/03/15 15:05:51;;;;;;;5.30;3.40;;;;;;;15.98;57.12;98427.83;224529;1286;22552;-82
2024/03/15 15:10:54;;;;;;;5.10;3.60;;;;;;;15.77;57.52;98430.69;224519;1286;22554;-81
2024/03/15 15:15:56;;;;;;;4.00;3.30;;;;;;;15.65;58.04;98435.39;224613;1286;23858;-81
2024/03/15 15:20:57;;;;;;;5.90;4.40;;;;;;;15.53;58.27;98436.86;225136;1283;22556;-81
2024/03/15 15:26:00;;;;;;;4.80;3.40;;;;;;;15.41;58.70;98444.40;225206;1279;22498;-81
2024/03/15 15:31:03;;;;;;;5.20;3.80;;;;;;;15.30;58.61;98442.92;225101;1282;22557;-81
2024/03/15 15:36:05;;;;;;;5.20;3.80;;;;;;;15.16;58.88;98442.58;225315;1280;22543;-80
2024/03/15 15:41:08;;;;;;;6.80;4.00;;;;;;;15.03;58.77;98441.57;225268;1278;22577;-81
2024/03/15 15:46:10;;;;;;;5.90;4.40;;;;;;;14.93;59.29;98442.73;225158;1281;22567;-80
2024/03/15 15:51:14;;;;;;;6.60;4.30;;;;;;;14.82;59.69;98440.82;225268;1280;22557;-81
2024/03/15 15:56:16;;;;;;;5.70;4.10;;;;;;;14.68;59.71;98442.13;225173;1281;22592;-81
2024/03/15 16:01:19;;;;;;;7.00;4.30;;;;;;;14.54;60.07;98440.45;225322;1283;22598;-80
2024/03/15 16:06:21;;;;;;;5.60;4.50;;;;;;;14.41;60.20;98442.66;225207;1280;23627;-81
2024/03/15 16:11:24;;;;;;;6.90;3.90;;;;;;;14.27;60.62;98444.46;225278;1279;22555;-80
2024/03/15 16:16:27;;;;;;;5.00;4.20;;;;;;;14.14;60.99;98446.18;225212;1276;22534;-81
2024/03/15 16:21:29;;;;;;;6.80;5.00;;;;;;;14.00;61.56;98447.63;225331;1282;22558;-80
2024/03/15 16:26:31;;;;;;;7.90;5.30;;;;;;;13.85;61.28;98454.29;225361;1280;25250;-80
2024/03/15 16:31:33;;;;;;;7.30;5.00;;;;;;;13.67;61.65;98453.03;225287;1283;22669;-81
2024/03/15 16:36:35;;;;;;;6.40;5.10;;;;;;;13.48;61.93;98452.88;225324;1282;22553;-80
2024/03/15 16:41:36;;;;;;;7.40;5.40;;;;;;;13.28;62.20;98454.76;225262;1283;22611;-81
2024/03/15 16:46:39;;;;;;;8.70;5.60;;;;;;;13.10;62.55;98460.31;225226;1283;22555;-80
2024/03/15 16:51:41;;;;;;;8.00;5.30;;;;;;;12.89;62.85;98459.09;225212;1281;22568;-80
2024/03/15 16:56:43;;;;;;;11.80;6.60;;;;;;;12.71;63.42;98459.48;225280;1280;22604;-80
2024/03/15 17:01:45;;;;;;;8.60;7.10;;;;;;;12.53;63.76;98457.27;225313;1283;22547;-79
2024/03/15 17:06:47;;;;;;;11.10;7.10;;;;;;;12.34;63.96;98460.45;225337;1282;22545;-79
2024/03/15 17:11:49;;;;;;;8.40;6.80;;;;;;;12.20;64.39;98465.27;225294;1279;22551;-80
2024/03/15 17:16:51;;;;;;;9.70;7.20;;;;;;;12.09;64.60;98472.41;225261;1283;22559;-80
2024/03/15 17:21:54;;;;;;;10.00;7.80;;;;;;;11.97;64.90;98472.35;225458;1281;22544;-79
2024/03/15 17:26:56;;;;;;;10.60;8.10;;;;;;;11.87;65.23;98480.37;225337;1281;23296;-79
2024/03/15 17:31:58;;;;;;;10.70;8.50;;;;;;;11.78;65.34;98481.66;225283;1277;22539;-80
2024/03/15 17:37:01;;;;;;;14.20;9.20;;;;;;;11.67;65.67;98486.35;225361;1283;25429;-80
2024/03/15 17:42:03;;;;;;;12.40;8.90;;;;;;;11.60;65.85;98489.02;225287;1283;22564;-80
2024/03/15 17:47:06;;;;;;;14.10;9.50;;;;;;;11.57;66.11;98490.91;225329;1282;22652;-81
2024/03/15 17:52:07;;;;;;;14.40;10.10;;;;;;;11.55;66.25;98490.54;225376;1283;22551;-80
2024/03/15 17:57:09;;;;;;;16.50;10.40;;;;;;;11.53;66.54;98494.57;225315;1283;22544;-80
2024/03/15 18:02:11;;;;;;;15.40;11.80;;;;;;;11.55;66.67;98494.36;225353;1283;22548;-80
2024/03/15 18:07:14;;;;;;;18.10;12.00;;;;;;;11.59;66.71;98490.00;225353;1282;22655;-79
2024/03/15 18:12:16;;;;;;;18.60;12.60;;;;;;;11.62;66.95;98491.11;225268;1279;22580;-80
2024/03/15 18:17:19;;;;;;;15.60;12.20;;;;;;;11.66;66.89;98489.20;225292;1283;22538;-79
2024/03/15 18:22:20;;;;;;;16.30;12.30;;;;;;;11.68;67.01;98493.23;225308;1282;22576;-79
2024/03/15 18:27:23;;;;;;;19.50;13.80;;;;;;;11.66;67.03;98492.88;225262;1281;22601;-79
2024/03/15 18:32:27;;;;;;;18.80;13.10;;;;;;;11.63;67.05;98494.98;225268;1282;25305;-79
2024/03/15 18:37:30;;;;;;;20.10;13.50;;;;;;;11.58;67.11;98497.45;225148;1283;22555;-78
2024/03/15 18:42:32;;;;;;;19.60;13.00;;;;;;;11.53;67.15;98499.57;225267;1281;22575;-79
2024/03/15 18:47:34;;;;;;;19.80;14.30;;;;;;;11.48;67.26;98504.11;225278;1282;22560;-79
2024/03/15 18:52:39;;;;;;;22.00;14.20;;;;;;;11.41;67.38;98503.13;225296;1282;22551;-80
2024/03/15 18:57:42;;;;;;;22.80;14.80;;;;;;;11.33;67.48;98502.16;225257;1281;22556;-79
2024/03/15 19:02:50;;;;;;;23.30;15.40;;;;;;;11.26;67.66;98504.91;225236;1281;22559;-79
2024/03/15 19:07:52;;;;;;;20.20;15.00;;;;;;;11.18;67.93;98502.69;225294;1283;22952;-79
2024/03/15 19:12:54;;;;;;;22.60;15.60;;;;;;;11.12;67.92;98503.84;225292;1280;25304;-79
2024/03/15 19:17:57;;;;;;;21.40;15.30;;;;;;;11.04;68.16;98503.00;225215;1279;22555;-80
2024/03/15 19:23:01;;;;;;;24.50;16.40;;;;;;;10.94;68.26;98503.70;225293;1283;22555;-80
2024/03/15 19:28:03;;;;;;;23.30;16.40;;;;;;;10.86;68.45;98501.05;225329;1282;23016;-80
2024/03/15 19:33:08;;;;;;;21.80;15.50;;;;;;;10.78;68.67;98499.77;225299;1281;22548;-80
2024/03/15 19:38:12;;;;;;;25.70;16.10;;;;;;;10.73;68.79;98499.45;226568;1275;22571;-81
2024/03/15 19:43:15;;;;;;;26.30;16.60;;;;;;;10.71;68.95;98501.46;226528;1275;22538;-79
2024/03/15 19:48:20;;;;;;;21.50;14.80;;;;;;;10.71;69.05;98498.65;226615;1275;22554;-80
2024/03/15 19:53:23;;;;;;;22.90;14.50;;;;;;;10.72;69.07;98493.54;226610;1271;22541;-81
2024/03/15 19:58:28;;;;;;;20.60;13.80;;;;;;;10.74;69.11;98497.50;226645;1272;22552;-79
2024/03/15 20:03:31;;;;;;;28.50;17.30;;;;;;;10.75;68.95;98493.32;226675;1273;22508;-80
2024/03/15 20:08:34;;;;;;;31.90;20.00;;;;;;;10.73;69.00;98494.08;226568;1274;22652;-78
2024/03/15 20:13:36;;;;;;;26.80;17.00;;;;;;;10.70;69.00;98500.32;226623;1272;25411;-78
2024/03/15 20:18:38;;;;;;;22.70;14.80;;;;;;;10.66;69.38;98498.08;226636;1275;22548;-78
2024/03/15 20:23:40;;;;;;;25.60;15.50;;;;;;;10.63;69.40;98497.66;226586;1275;22589;-79
2024/03/15 20:28:42;;;;;;;21.80;14.50;;;;;;;10.61;69.44;98497.80;226623;1275;22554;-79
2024/03/15 20:33:44;;;;;;;20.60;14.80;;;;;;;10.59;69.52;98494.17;226653;1260;22539;-79
2024/03/15 20:38:47;;;;;;;22.70;15.00;;;;;;;10.55;69.47;98499.59;226612;1275;22900;-80
2024/03/15 20:43:52;;;;;;;23.20;15.70;;;;;;;10.51;69.68;98501.41;226578;1272;22552;-79
2024/03/15 20:48:56;;;;;;;25.00;16.00;;;;;;;10.45;69.86;98495.92;226583;1259;22542;-80
2024/03/15 20:53:59;;;;;;;24.10;15.40;;;;;;;10.39;69.83;98502.27;226612;1272;25331;-79
2024/03/15 20:59:04;;;;;;;22.00;14.50;;;;;;;10.34;69.93;98505.08;226628;1273;24924;-79
2024/03/15 21:04:07;;;;;;;21.20;15.00;;;;;;;10.29;70.06;98507.34;226530;1276;22547;-78
2024/03/15 21:09:09;;;;;;;19.10;14.10;;;;;;;10.23;70.07;98508.95;226658;1272;22543;-79
2024/03/15 21:14:11;;;;;;;21.30;14.10;;;;;;;10.18;70.17;98513.11;226457;1275;22565;-79
2024/03/15 21:19:13;;;;;;;19.70;14.10;;;;;;;10.12;70.19;98513.23;226690;1272;22543;-80
2024/03/15 21:24:16;;;;;;;18.80;12.90;;;;;;;10.07;70.36;98516.27;226588;1275;22584;-78
2024/03/15 21:29:18;;;;;;;18.60;13.00;;;;;;;10.03;70.55;98520.65;226646;1274;22549;-79
2024/03/15 21:34:20;;;;;;;18.20;12.60;;;;;;;10.01;70.58;98519.86;226640;1273;22536;-79
2024/03/15 21:39:22;;;;;;;18.40;13.50;;;;;;;9.97;70.68;98515.48;226448;1275;24553;-79
2024/03/15 21:44:25;;;;;;;18.70;13.40;;;;;;;9.94;70.53;98517.29;226583;1275;25298;-80
2024/03/15 21:49:28;;;;;;;20.40;13.40;;;;;;;9.92;70.76;98519.55;226429;1275;22565;-79
2024/03/15 21:54:32;;;;;;;20.20;12.60;;;;;;;9.92;70.76;98524.14;226506;1275;25334;-80
2024/03/15 21:59:43;;;;;;;18.00;12.20;;;;;;;9.93;70.92;98519.44;226611;1273;22605;-80
2024/03/15 22:04:48;;;;;;;14.50;11.60;;;;;;;9.94;70.80;98521.52;226688;1272;22588;-79
2024/03/15 22:09:51;;;;;;;16.00;11.50;;;;;;;9.95;70.59;98517.89;226536;1275;22550;-79
2024/03/15 22:14:54;;;;;;;17.00;12.40;;;;;;;9.94;70.79;98511.24;226539;1275;22548;-78
2024/03/15 22:19:56;;;;;;;14.60;10.70;;;;;;;9.94;70.76;98511.89;226626;1275;22542;-80
2024/03/15 22:24:59;;;;;;;14.50;11.20;;;;;;;9.95;70.73;98512.58;226512;1275;22697;-80
2024/03/15 22:30:17;;;;;;;13.30;10.30;;;;;;;9.96;70.77;98511.73;226624;1276;22575;-78
2024/03/15 22:35:19;;;;;;;14.30;10.50;;;;;;;9.97;70.68;98515.52;226586;1275;22553;-78
2024/03/15 22:40:22;;;;;;;14.70;11.20;;;;;;;9.97;70.77;98512.84;226543;1275;22547;-78
2024/03/15 22:45:26;;;;;;;13.60;11.00;;;;;;;9.98;70.73;98515.28;226484;1275;25815;-78
2024/03/15 22:50:28;;;;;;;15.80;11.50;;;;;;;9.97;70.58;98515.48;226587;1273;22542;-79
2024/03/15 22:55:30;;;;;;;14.70;11.40;;;;;;;9.96;70.77;98512.63;226569;1272;22546;-79
2024/03/15 23:00:42;;;;;;;15.90;11.40;;;;;;;9.97;70.71;98514.05;226582;1275;22541;-79
2024/03/15 23:05:45;;;;;;;14.70;11.30;;;;;;;9.99;70.60;98512.82;226502;1275;22547;-79
2024/03/15 23:10:48;;;;;;;13.10;9.80;;;;;;;10.02;70.75;98514.42;226643;1275;22587;-79
2024/03/15 23:15:51;;;;;;;17.50;10.20;;;;;;;10.04;70.55;98522.33;226409;1275;22543;-79